Time;durP1;ratioP1;P1;durP2;ratioP2;P2;SDS_P1;SDS_P2;PMS_P1;PMS_P2;Temp;Humidity;BMP_temperature;BMP_pressure;BME280_temperature;BME280_humidity;BME280_pressure;Samples;Min_cycle;Max_cycle;Signal;HPM_P1;HPM_P2
2023/12/06 00:04:09;;;;;;;16.20;13.70;;;24.20;50.90;;;;;;222735;1262;22518;-50
2023/12/06 00:09:13;;;;;;;17.00;13.80;;;24.40;50.80;;;;;;222774;1257;24193;-51
2023/12/06 00:14:18;;;;;;;16.60;13.00;;;24.50;49.90;;;;;;222874;1264;25739;-46
2023/12/06 00:19:23;;;;;;;19.30;13.60;;;24.40;50.30;;;;;;222959;1264;24367;-53
2023/12/06 00:24:28;;;;;;;16.70;14.10;;;24.30;50.20;;;;;;222673;1261;22529;-51
2023/12/06 00:29:33;;;;;;;16.90;14.10;;;24.10;50.30;;;;;;222695;1254;22597;-51
2023/12/06 00:34:37;;;;;;;16.40;14.30;;;24.10;50.60;;;;;;222841;1255;25351;-55
2023/12/06 00:39:41;;;;;;;15.70;13.80;;;23.90;50.60;;;;;;222861;1258;26646;-52
2023/12/06 00:44:46;;;;;;;16.70;14.20;;;23.80;50.60;;;;;;222676;1269;25356;-48
2023/12/06 00:49:50;;;;;;;18.60;14.20;;;23.80;50.60;;;;;;222587;1254;22640;-49
2023/12/06 00:54:55;;;;;;;16.30;14.20;;;23.60;51.00;;;;;;222587;1255;25675;-46
2023/12/06 00:59:59;;;;;;;18.70;13.20;;;23.70;50.70;;;;;;222476;1260;22640;-50
2023/12/06 01:05:05;;;;;;;17.70;14.20;;;24.10;50.10;;;;;;222502;1269;24197;-49
2023/12/06 01:10:09;;;;;;;16.20;14.00;;;24.20;49.70;;;;;;222617;1263;22653;-50
2023/12/06 01:15:14;;;;;;;15.60;13.60;;;24.30;49.30;;;;;;222687;1253;24402;-52
2023/12/06 01:20:18;;;;;;;15.70;13.70;;;24.40;49.20;;;;;;222799;1264;24235;-54
2023/12/06 01:25:23;;;;;;;15.10;13.50;;;24.40;49.30;;;;;;222611;1254;24432;-50
2023/12/06 01:30:27;;;;;;;17.70;14.30;;;24.30;49.40;;;;;;222703;1269;24330;-50
2023/12/06 01:35:32;;;;;;;15.60;13.80;;;24.20;49.50;;;;;;222615;1263;22644;-46
2023/12/06 01:40:36;;;;;;;15.50;13.30;;;24.10;49.50;;;;;;222589;1266;22518;-48
2023/12/06 01:45:41;;;;;;;16.90;13.50;;;23.90;49.50;;;;;;222645;1263;24380;-49
2023/12/06 01:50:49;;;;;;;19.00;13.90;;;23.70;50.30;;;;;;222648;1266;25218;-46
2023/12/06 01:55:53;;;;;;;17.70;14.50;;;23.60;50.80;;;;;;222751;1269;24192;-52
2023/12/06 02:00:58;;;;;;;17.20;14.00;;;23.50;50.60;;;;;;222925;1264;25471;-49
2023/12/06 02:06:06;;;;;;;16.40;13.70;;;23.70;50.30;;;;;;223073;1264;26521;-48
2023/12/06 02:11:10;;;;;;;16.30;14.00;;;24.10;49.30;;;;;;222646;1267;22698;-48
2023/12/06 02:16:16;;;;;;;18.00;14.90;;;24.30;48.70;;;;;;222523;1261;24965;-51
2023/12/06 02:21:20;;;;;;;15.40;13.80;;;24.50;48.60;;;;;;222882;1259;22514;-48
2023/12/06 02:26:25;;;;;;;15.80;13.40;;;24.60;48.60;;;;;;223108;1265;26503;-52
2023/12/06 02:31:29;;;;;;;16.10;13.90;;;24.50;48.30;;;;;;222661;1254;22515;-48
2023/12/06 02:36:35;;;;;;;16.40;13.90;;;24.40;48.50;;;;;;222560;1253;25390;-48
2023/12/06 02:41:40;;;;;;;16.60;14.80;;;24.30;48.60;;;;;;222424;1269;24365;-48
2023/12/06 02:46:45;;;;;;;16.10;14.40;;;24.10;48.90;;;;;;222406;1266;25155;-48
2023/12/06 02:51:49;;;;;;;18.80;13.90;;;23.90;49.40;;;;;;222531;1269;26644;-48
2023/12/06 02:56:53;;;;;;;16.70;13.80;;;24.00;49.40;;;;;;222459;1263;22540;-49
2023/12/06 03:01:58;;;;;;;16.80;14.40;;;24.00;49.20;;;;;;222728;1254;24439;-52
2023/12/06 03:07:03;;;;;;;17.20;14.60;;;23.70;49.80;;;;;;222813;1254;23991;-50
2023/12/06 03:12:07;;;;;;;16.40;14.40;;;23.60;49.50;;;;;;222615;1256;22522;-48
2023/12/06 03:17:12;;;;;;;15.40;13.60;;;23.80;49.30;;;;;;222517;1266;22643;-48
2023/12/06 03:22:16;;;;;;;16.40;13.90;;;24.10;48.50;;;;;;222928;1263;23220;-50
2023/12/06 03:27:21;;;;;;;15.10;13.50;;;24.20;48.40;;;;;;223062;1269;22526;-51
2023/12/06 03:32:27;;;;;;;16.30;13.70;;;24.30;48.50;;;;;;222740;1256;22599;-52
2023/12/06 03:37:32;;;;;;;16.30;13.50;;;24.50;48.20;;;;;;222767;1254;22520;-48
2023/12/06 03:42:36;;;;;;;16.90;13.80;;;24.40;48.90;;;;;;222470;1264;24691;-51
2023/12/06 03:47:41;;;;;;;17.10;13.80;;;24.30;48.60;;;;;;222731;1264;22527;-54
2023/12/06 03:52:45;;;;;;;17.30;13.70;;;24.30;49.20;;;;;;222871;1263;24328;-46
2023/12/06 03:57:50;;;;;;;18.10;14.10;;;24.10;48.30;;;;;;222770;1266;25328;-48
2023/12/06 04:02:57;;;;;;;15.00;13.30;;;24.00;48.50;;;;;;222562;1263;22633;-51
2023/12/06 04:08:02;;;;;;;15.50;13.80;;;23.90;48.50;;;;;;222580;1262;24195;-47
2023/12/06 04:13:06;;;;;;;18.40;13.60;;;23.70;48.50;;;;;;222714;1266;24225;-46
2023/12/06 04:18:11;;;;;;;15.20;13.70;;;23.60;48.80;;;;;;222546;1259;22533;-48
2023/12/06 04:23:16;;;;;;;15.70;14.10;;;23.70;48.40;;;;;;222330;1253;22514;-47
2023/12/06 04:28:20;;;;;;;17.30;13.90;;;24.00;48.00;;;;;;222668;1269;22519;-51
2023/12/06 04:33:24;;;;;;;14.80;13.20;;;24.40;47.30;;;;;;222531;1263;23053;-51
2023/12/06 04:38:29;;;;;;;16.00;13.80;;;24.50;47.30;;;;;;222454;1263;22613;-50
2023/12/06 04:43:34;;;;;;;15.20;13.60;;;24.60;46.90;;;;;;222470;1268;22788;-49
2023/12/06 04:48:38;;;;;;;14.90;13.10;;;24.60;46.90;;;;;;223083;1254;22534;-45
2023/12/06 04:53:43;;;;;;;16.60;13.60;;;24.50;47.10;;;;;;222417;1253;22511;-47
2023/12/06 04:58:47;;;;;;;14.50;12.30;;;24.40;47.10;;;;;;222734;1252;22640;-49
2023/12/06 05:03:52;;;;;;;15.30;13.40;;;24.30;47.20;;;;;;222800;1266;25401;-47
2023/12/06 05:08:56;;;;;;;16.70;13.30;;;24.10;47.40;;;;;;222755;1269;22514;-47
2023/12/06 05:14:04;;;;;;;14.80;12.90;;;23.90;47.60;;;;;;222915;1268;25414;-48
2023/12/06 05:19:08;;;;;;;17.20;13.50;;;23.90;48.80;;;;;;222668;1264;22519;-47
2023/12/06 05:24:12;;;;;;;14.90;12.70;;;23.90;49.50;;;;;;222417;1268;22517;-50
2023/12/06 05:29:17;;;;;;;18.50;14.20;;;23.70;49.10;;;;;;222940;1256;22524;-48
2023/12/06 05:34:21;;;;;;;18.60;14.20;;;23.50;48.70;;;;;;222797;1263;22659;-51
2023/12/06 05:39:26;;;;;;;16.30;13.50;;;23.30;49.70;;;;;;222740;1263;24203;-51
2023/12/06 05:44:31;;;;;;;20.80;13.00;;;23.20;49.80;;;;;;222738;1268;22708;-52
2023/12/06 05:49:35;;;;;;;17.30;13.30;;;23.10;50.40;;;;;;222507;1266;24186;-49
2023/12/06 05:54:40;;;;;;;17.20;13.70;;;23.20;50.20;;;;;;222755;1268;25479;-52
2023/12/06 05:59:45;;;;;;;17.30;13.80;;;23.60;49.40;;;;;;222411;1268;22758;-51
2023/12/06 06:04:50;;;;;;;18.80;13.60;;;23.90;48.60;;;;;;222880;1265;22528;-54
2023/12/06 06:09:55;;;;;;;15.80;13.90;;;24.00;48.40;;;;;;222723;1261;24171;-51
2023/12/06 06:15:08;;;;;;;15.30;13.10;;;24.10;48.10;;;;;;222315;1263;24431;-53
2023/12/06 06:20:12;;;;;;;16.60;12.70;;;24.00;48.00;;;;;;223076;1263;22531;-52
2023/12/06 06:25:17;;;;;;;17.50;14.60;;;23.90;48.30;;;;;;222450;1256;281194;-49
2023/12/06 06:30:21;;;;;;;17.40;12.60;;;23.70;48.40;;;;;;222759;1256;22528;-51
2023/12/06 06:35:26;;;;;;;18.90;13.50;;;23.60;49.10;;;;;;222653;1256;25281;-50
2023/12/06 06:40:30;;;;;;;17.30;13.60;;;23.40;49.20;;;;;;222351;1268;25387;-49
2023/12/06 06:45:37;;;;;;;15.20;13.40;;;23.40;49.90;;;;;;222401;1268;22547;-53
2023/12/06 06:50:42;;;;;;;28.90;14.60;;;23.20;50.30;;;;;;222314;1256;25453;-51
2023/12/06 06:55:47;;;;;;;20.40;12.30;;;23.20;50.60;;;;;;222660;1256;22513;-52
2023/12/06 07:00:51;;;;;;;14.80;13.20;;;23.10;51.10;;;;;;222294;1256;23603;-51
2023/12/06 07:05:55;;;;;;;17.00;13.40;;;23.20;50.80;;;;;;222490;1266;24323;-52
2023/12/06 07:11:00;;;;;;;17.20;13.50;;;23.50;50.20;;;;;;222906;1263;22515;-48
2023/12/06 07:16:04;;;;;;;15.60;12.80;;;23.90;48.90;;;;;;222815;1266;24562;-52
2023/12/06 07:21:09;;;;;;;17.70;13.00;;;24.10;48.40;;;;;;222888;1254;22626;-49
2023/12/06 07:26:13;;;;;;;20.70;13.60;;;24.20;49.40;;;;;;222544;1269;24355;-50
2023/12/06 07:31:18;;;;;;;17.60;12.70;;;24.00;49.10;;;;;;222691;1268;24177;-53
2023/12/06 07:36:22;;;;;;;17.70;13.60;;;23.80;49.30;;;;;;222776;1256;22531;-52
2023/12/06 07:41:27;;;;;;;15.60;13.10;;;23.70;50.10;;;;;;222746;1259;25226;-54
2023/12/06 07:46:31;;;;;;;17.60;13.00;;;23.50;50.80;;;;;;222497;1269;22514;-51
2023/12/06 07:51:38;;;;;;;19.30;13.70;;;23.40;50.80;;;;;;222728;1266;23246;-49
2023/12/06 07:56:43;;;;;;;21.80;14.70;;;23.30;50.60;;;;;;222732;1261;22518;-51
2023/12/06 08:01:47;;;;;;;16.60;14.30;;;23.20;50.70;;;;;;222618;1266;22627;-54
2023/12/06 08:06:52;;;;;;;20.80;14.80;;;23.30;50.40;;;;;;222646;1259;24371;-51
2023/12/06 08:11:56;;;;;;;20.90;14.90;;;23.20;49.90;;;;;;222684;1263;25236;-49
2023/12/06 08:17:00;;;;;;;19.90;14.40;;;23.10;50.10;;;;;;222612;1263;23241;-54
2023/12/06 08:22:05;;;;;;;22.80;17.10;;;23.00;50.30;;;;;;222627;1266;22643;-51
2023/12/06 08:27:09;;;;;;;21.60;16.60;;;23.00;48.60;;;;;;222478;1263;24226;-51
2023/12/06 08:32:13;;;;;;;24.10;17.30;;;23.40;47.90;;;;;;222379;1263;25236;-50
2023/12/06 08:37:18;;;;;;;21.20;16.70;;;23.70;47.10;;;;;;222399;1254;22639;-48
2023/12/06 08:42:22;;;;;;;22.10;17.60;;;23.90;46.80;;;;;;222735;1263;24049;-53
2023/12/06 08:47:27;;;;;;;22.40;17.40;;;24.10;46.80;;;;;;222562;1269;24328;-49
2023/12/06 08:52:32;;;;;;;23.30;17.30;;;24.00;47.80;;;;;;222837;1269;22884;-55
2023/12/06 08:57:37;;;;;;;25.30;17.80;;;23.90;49.00;;;;;;222295;1265;22548;-55
2023/12/06 09:02:45;;;;;;;23.00;18.30;;;23.80;48.40;;;;;;222178;1263;24229;-52
2023/12/06 09:07:49;;;;;;;23.50;17.90;;;23.70;48.70;;;;;;222853;1263;22623;-51
2023/12/06 09:12:54;;;;;;;23.20;17.50;;;23.50;48.60;;;;;;222858;1261;25402;-53
2023/12/06 09:17:59;;;;;;;24.20;18.30;;;23.30;49.60;;;;;;222451;1258;22564;-50
2023/12/06 09:23:03;;;;;;;22.90;17.50;;;23.20;49.40;;;;;;222896;1261;25403;-53
2023/12/06 09:28:07;;;;;;;25.00;18.00;;;23.20;49.70;;;;;;222421;1264;22507;-50
2023/12/06 09:33:11;;;;;;;21.70;18.40;;;23.10;49.40;;;;;;222417;1263;22514;-51
2023/12/06 09:38:16;;;;;;;21.40;17.40;;;23.10;49.40;;;;;;223143;1266;22510;-52
2023/12/06 09:43:20;;;;;;;22.50;17.60;;;23.30;49.70;;;;;;222955;1253;22523;-51
2023/12/06 09:48:24;;;;;;;23.20;18.20;;;23.60;48.80;;;;;;222679;1266;22524;-50
2023/12/06 09:53:29;;;;;;;23.20;18.80;;;23.60;49.10;;;;;;222911;1263;22517;-50
2023/12/06 09:58:34;;;;;;;23.70;18.40;;;23.70;47.80;;;;;;222720;1268;24233;-49
2023/12/06 10:03:39;;;;;;;22.20;18.30;;;23.80;47.70;;;;;;222970;1266;26513;-51
2023/12/06 10:08:51;;;;;;;24.70;17.70;;;23.90;47.50;;;;;;222821;1263;22564;-53
2023/12/06 10:13:56;;;;;;;;;;;23.90;47.40;;;;;;222503;1261;23012;-52
2023/12/06 10:19:01;;;;;;;21.70;18.00;;;23.70;47.90;;;;;;222483;1254;22632;-52
2023/12/06 10:24:07;;;;;;;24.00;18.20;;;23.60;48.50;;;;;;222841;1256;24270;-51
2023/12/06 10:29:12;;;;;;;22.60;17.30;;;23.50;48.40;;;;;;222433;1253;22514;-51
2023/12/06 10:34:17;;;;;;;21.00;17.50;;;23.50;49.40;;;;;;222890;1266;25268;-52
2023/12/06 10:39:22;;;;;;;28.00;17.90;;;23.40;49.20;;;;;;222751;1257;22629;-53
2023/12/06 10:44:27;;;;;;;24.10;17.00;;;23.30;48.90;;;;;;222713;1263;22960;-52
2023/12/06 10:49:34;;;;;;;22.00;17.00;;;23.30;50.00;;;;;;222566;1261;25258;-50
2023/12/06 10:54:42;;;;;;;29.50;18.60;;;23.10;49.80;;;;;;222409;1263;22524;-51
2023/12/06 10:59:47;;;;;;;23.50;17.20;;;23.00;49.60;;;;;;223008;1266;25552;-52
2023/12/06 11:04:57;;;;;;;26.00;18.10;;;23.40;49.40;;;;;;223278;1263;22523;-50
2023/12/06 11:10:18;;;;;;;22.10;16.10;;;23.80;48.70;;;;;;222846;1263;22510;-51
2023/12/06 11:15:52;;;;;;;20.80;17.70;;;23.90;48.00;;;;;;222516;1263;22569;-49
2023/12/06 11:20:56;;;;;;;22.90;17.60;;;24.00;47.70;;;;;;222953;1261;23918;-51
2023/12/06 11:26:01;;;;;;;24.80;17.10;;;24.00;47.80;;;;;;222216;1261;24215;-51
2023/12/06 11:31:07;;;;;;;21.10;17.30;;;24.10;47.70;;;;;;222841;1268;22514;-46
2023/12/06 11:36:17;;;;;;;21.30;18.10;;;23.80;47.90;;;;;;222619;1263;22528;-51
2023/12/06 11:41:21;;;;;;;22.80;17.80;;;23.70;48.00;;;;;;222339;1268;25436;-48
2023/12/06 11:46:27;;;;;;;25.70;17.50;;;23.60;48.40;;;;;;222737;1263;23989;-51
2023/12/06 11:51:34;;;;;;;22.10;17.10;;;23.60;49.70;;;;;;222581;1266;25352;-50
2023/12/06 11:56:38;;;;;;;21.00;16.50;;;23.40;49.30;;;;;;223189;1265;22526;-47
2023/12/06 12:01:45;;;;;;;20.90;17.20;;;23.30;49.60;;;;;;222529;1268;22538;-50
2023/12/06 12:06:51;;;;;;;24.60;17.20;;;23.30;50.60;;;;;;222980;1263;22533;-51
2023/12/06 12:11:56;;;;;;;21.90;16.80;;;23.10;50.40;;;;;;222849;1253;25475;-47
2023/12/06 12:17:02;;;;;;;24.00;18.30;;;23.10;50.90;;;;;;222805;1263;24190;-47
2023/12/06 12:22:07;;;;;;;21.40;17.10;;;22.90;50.40;;;;;;222425;1269;22520;-50
2023/12/06 12:27:11;;;;;;;20.80;17.40;;;23.30;49.40;;;;;;222679;1266;24193;-49
2023/12/06 12:32:16;;;;;;;19.70;17.50;;;23.60;48.30;;;;;;223054;1266;24263;-50
2023/12/06 12:37:20;;;;;;;20.90;17.60;;;23.70;47.60;;;;;;222471;1257;22980;-50
2023/12/06 12:42:25;;;;;;;24.10;18.30;;;23.70;47.60;;;;;;222642;1266;24186;-48
2023/12/06 12:47:30;;;;;;;32.50;18.40;;;23.80;47.20;;;;;;222411;1263;24891;-47
2023/12/06 12:52:38;;;;;;;18.70;16.60;;;23.70;48.10;;;;;;222871;1254;24088;-50
2023/12/06 12:57:50;;;;;;;24.40;20.50;;;23.70;47.90;;;;;;222696;1263;24247;-51
2023/12/06 13:02:57;;;;;;;24.70;21.20;;;23.60;50.20;;;;;;222519;1269;24475;-51
2023/12/06 13:08:01;;;;;;;29.50;22.80;;;23.50;52.20;;;;;;222603;1264;27739;-51
2023/12/06 13:13:05;;;;;;;27.40;22.50;;;23.70;57.30;;;;;;222890;1266;23888;-45
2023/12/06 13:18:09;;;;;;;26.50;20.90;;;23.70;56.20;;;;;;222397;1264;22521;-50
2023/12/06 13:23:14;;;;;;;22.30;20.00;;;23.60;56.60;;;;;;222611;1253;22550;-50
2023/12/06 13:28:18;;;;;;;23.00;20.10;;;23.50;56.50;;;;;;222431;1269;25226;-47
2023/12/06 13:33:23;;;;;;;22.30;19.50;;;23.30;56.60;;;;;;222453;1254;22513;-47
2023/12/06 13:38:27;;;;;;;24.50;19.90;;;23.10;55.90;;;;;;222485;1253;22522;-49
2023/12/06 13:43:31;;;;;;;21.90;19.60;;;23.00;55.30;;;;;;222608;1254;22521;-50
2023/12/06 13:48:36;;;;;;;21.40;18.90;;;22.90;54.90;;;;;;222368;1266;22592;-47
2023/12/06 13:53:41;;;;;;;22.00;18.30;;;23.00;55.40;;;;;;222342;1266;22542;-48
2023/12/06 13:58:45;;;;;;;24.80;19.90;;;23.00;55.80;;;;;;222641;1264;24009;-48
2023/12/06 14:03:55;;;;;;;21.60;18.50;;;23.20;54.50;;;;;;222518;1263;22661;-51
2023/12/06 14:09:00;;;;;;;22.40;18.40;;;23.40;53.60;;;;;;222559;1263;22609;-49
2023/12/06 14:14:04;;;;;;;20.20;16.50;;;23.60;53.70;;;;;;222668;1257;25319;-50
2023/12/06 14:19:09;;;;;;;20.10;17.40;;;23.70;52.80;;;;;;222632;1263;25349;-49
2023/12/06 14:24:14;;;;;;;20.10;17.80;;;23.60;53.00;;;;;;222699;1266;22612;-47
2023/12/06 14:29:18;;;;;;;19.90;16.30;;;23.60;53.30;;;;;;222452;1266;25397;-45
2023/12/06 14:34:23;;;;;;;23.80;18.20;;;23.50;53.30;;;;;;222523;1261;25497;-48
2023/12/06 14:39:27;;;;;;;20.90;17.80;;;23.50;53.30;;;;;;222556;1254;24287;-47
2023/12/06 14:44:32;;;;;;;22.10;18.90;;;23.40;52.60;;;;;;222625;1261;22517;-48
2023/12/06 14:49:36;;;;;;;20.30;18.20;;;23.30;52.50;;;;;;222059;1269;22605;-45
2023/12/06 14:54:41;;;;;;;22.70;17.70;;;23.30;51.90;;;;;;222265;1263;22565;-50
2023/12/06 14:59:46;;;;;;;23.00;19.20;;;23.10;52.10;;;;;;222321;1266;25319;-45
2023/12/06 15:04:50;;;;;;;23.30;18.70;;;23.20;52.40;;;;;;222290;1266;22575;-48
2023/12/06 15:09:55;;;;;;;23.30;19.10;;;23.40;51.70;;;;;;225489;1268;24243;-46
2023/12/06 15:14:59;;;;;;;26.50;18.50;;;23.80;50.40;;;;;;222672;1254;22528;-49
2023/12/06 15:20:08;;;;;;;29.20;19.20;;;23.80;51.50;;;;;;222613;1267;22524;-46
2023/12/06 15:25:13;;;;;;;24.40;18.70;;;23.80;52.80;;;;;;222805;1266;22623;-47
2023/12/06 15:30:17;;;;;;;28.40;19.70;;;23.60;51.20;;;;;;222414;1264;24177;-47
2023/12/06 15:35:22;;;;;;;24.30;18.40;;;23.60;50.80;;;;;;222675;1264;22626;-51
2023/12/06 15:40:26;;;;;;;27.80;19.70;;;23.50;51.20;;;;;;222532;1269;22760;-51
2023/12/06 15:45:31;;;;;;;25.10;19.10;;;23.40;50.70;;;;;;222662;1263;22552;-50
2023/12/06 15:50:36;;;;;;;24.30;20.00;;;23.30;51.30;;;;;;222829;1266;25274;-51
2023/12/06 15:55:41;;;;;;;27.50;20.10;;;23.20;51.20;;;;;;222490;1263;22574;-49
2023/12/06 16:00:46;;;;;;;26.40;20.40;;;23.20;51.10;;;;;;222687;1267;22633;-48
2023/12/06 16:05:51;;;;;;;26.20;20.80;;;23.10;51.30;;;;;;222573;1266;22519;-48
2023/12/06 16:10:56;;;;;;;27.80;20.80;;;22.90;51.70;;;;;;223167;1246;25581;-47
2023/12/06 16:16:11;;;;;;;27.60;21.30;;;22.90;51.80;;;;;;222946;1253;22529;-46
2023/12/06 16:21:15;;;;;;;27.50;21.70;;;23.30;50.70;;;;;;222751;1261;22513;-51
2023/12/06 16:26:20;;;;;;;23.50;19.00;;;23.50;50.30;;;;;;222313;1263;24191;-49
2023/12/06 16:31:24;;;;;;;30.60;20.40;;;23.70;49.70;;;;;;222862;1266;22522;-50
2023/12/06 16:36:29;;;;;;;26.60;21.30;;;23.90;49.00;;;;;;223010;1266;24221;-46
2023/12/06 16:41:33;;;;;;;26.40;20.30;;;23.90;49.60;;;;;;222764;1264;24533;-48
2023/12/06 16:46:43;;;;;;;29.30;20.90;;;24.10;49.30;;;;;;222347;1266;22601;-47
2023/12/06 16:51:48;;;;;;;26.60;22.20;;;23.90;49.70;;;;;;222480;1269;24216;-47
2023/12/06 16:56:52;;;;;;;27.50;20.90;;;23.70;50.10;;;;;;222544;1264;22518;-47
2023/12/06 17:01:58;;;;;;;25.40;21.10;;;23.70;50.30;;;;;;222601;1264;26599;-51
2023/12/06 17:07:03;;;;;;;26.70;21.10;;;23.60;51.30;;;;;;222954;1246;24366;-47
2023/12/06 17:12:09;;;;;;;24.60;20.70;;;23.70;51.20;;;;;;223139;1269;22511;-48
2023/12/06 17:17:13;;;;;;;28.00;21.80;;;23.60;51.40;;;;;;222818;1266;24223;-47
2023/12/06 17:22:18;;;;;;;29.10;22.60;;;23.60;51.10;;;;;;222777;1266;25349;-47
2023/12/06 17:27:22;;;;;;;34.00;23.10;;;23.40;51.50;;;;;;222491;1266;24237;-48
2023/12/06 17:32:29;;;;;;;34.80;24.50;;;23.40;51.50;;;;;;222936;1263;22674;-51
2023/12/06 17:37:35;;;;;;;33.20;26.00;;;23.50;52.00;;;;;;222560;1254;22528;-50
2023/12/06 17:42:41;;;;;;;41.80;26.50;;;23.40;52.80;;;;;;222728;1263;23883;-48
2023/12/06 17:47:50;;;;;;;40.00;26.80;;;23.30;53.60;;;;;;222545;1261;22521;-49
2023/12/06 17:52:56;;;;;;;40.40;28.30;;;23.30;53.90;;;;;;222733;1264;22531;-49
2023/12/06 17:58:02;;;;;;;41.30;27.40;;;23.30;53.80;;;;;;222655;1263;22521;-48
2023/12/06 18:03:08;;;;;;;37.70;27.10;;;23.40;54.70;;;;;;222870;1266;25607;-48
2023/12/06 18:08:16;;;;;;;42.40;26.40;;;23.30;54.60;;;;;;222810;1269;24046;-49
2023/12/06 18:13:23;;;;;;;36.60;26.20;;;23.30;54.60;;;;;;222433;1263;25322;-49
2023/12/06 18:18:30;;;;;;;41.70;29.20;;;23.20;54.80;;;;;;223219;1257;24043;-49
2023/12/06 18:23:36;;;;;;;36.10;26.50;;;23.00;55.60;;;;;;222678;1254;221767;-48
2023/12/06 18:28:43;;;;;;;82.60;45.50;;;23.10;55.70;;;;;;222983;1269;25610;-50
2023/12/06 18:33:49;;;;;;;82.70;44.80;;;23.00;56.10;;;;;;222597;1266;23317;-49
2023/12/06 18:38:56;;;;;;;62.90;40.60;;;22.90;56.60;;;;;;223012;1269;22518;-46
2023/12/06 18:44:03;;;;;;;68.00;43.00;;;22.90;56.90;;;;;;222780;1254;24241;-47
2023/12/06 18:49:10;;;;;;;67.50;40.20;;;22.90;56.30;;;;;;222567;1264;25433;-50
2023/12/06 18:54:16;;;;;;;70.10;41.60;;;22.80;56.70;;;;;;222529;1253;22585;-51
2023/12/06 18:59:22;;;;;;;66.80;40.00;;;22.70;56.30;;;;;;222905;1263;22521;-48
2023/12/06 19:04:28;;;;;;;65.50;39.40;;;22.70;56.30;;;;;;222629;1257;23899;-50
2023/12/06 19:09:35;;;;;;;70.50;39.80;;;22.60;56.40;;;;;;222949;1264;24223;-50
2023/12/06 19:14:40;;;;;;;62.50;39.40;;;22.60;56.60;;;;;;222891;1254;22569;-47
2023/12/06 19:19:46;;;;;;;61.30;39.80;;;22.50;57.10;;;;;;223202;1260;24192;-50
2023/12/06 19:24:53;;;;;;;57.50;38.90;;;22.50;56.80;;;;;;222728;1253;22640;-46
2023/12/06 19:29:58;;;;;;;57.10;37.80;;;22.50;56.50;;;;;;222310;1269;25338;-47
2023/12/06 19:35:06;;;;;;;52.90;35.50;;;22.40;56.50;;;;;;222397;1264;22520;-50
2023/12/06 19:40:13;;;;;;;53.80;36.60;;;22.60;56.90;;;;;;222839;1264;22515;-46
2023/12/06 19:45:19;;;;;;;55.00;36.50;;;23.40;54.50;;;;;;222427;1266;24225;-48
2023/12/06 19:50:25;;;;;;;57.60;36.80;;;23.80;53.10;;;;;;222786;1263;24264;-47
2023/12/06 19:55:31;;;;;;;57.60;35.50;;;24.00;52.10;;;;;;222857;1254;22628;-50
2023/12/06 20:00:37;;;;;;;53.80;36.60;;;24.00;52.40;;;;;;222719;1264;22647;-51
2023/12/06 20:05:45;;;;;;;55.90;35.70;;;23.90;52.50;;;;;;222830;1264;24303;-51
2023/12/06 20:10:51;;;;;;;49.00;35.30;;;23.70;52.60;;;;;;222868;1264;24473;-50
2023/12/06 20:15:57;;;;;;;55.10;34.90;;;23.50;52.30;;;;;;222752;1264;22517;-49
2023/12/06 20:21:03;;;;;;;55.70;35.90;;;23.40;52.90;;;;;;222586;1262;24193;-46
2023/12/06 20:26:10;;;;;;;47.20;34.50;;;23.30;53.90;;;;;;222444;1264;22714;-44
2023/12/06 20:31:15;;;;;;;50.50;34.70;;;23.30;53.70;;;;;;222754;1266;22514;-42
2023/12/06 20:36:24;;;;;;;49.60;35.10;;;23.40;54.00;;;;;;222615;1254;22549;-45
2023/12/06 20:41:30;;;;;;;57.80;34.70;;;23.20;53.80;;;;;;223144;1260;24441;-43
2023/12/06 20:46:36;;;;;;;47.90;35.10;;;23.00;53.90;;;;;;222846;1264;25567;-43
2023/12/06 20:51:45;;;;;;;52.00;34.10;;;23.00;54.80;;;;;;222740;1254;26515;-46
2023/12/06 20:56:53;;;;;;;56.60;33.90;;;23.10;54.20;;;;;;222799;1257;24362;-45
2023/12/06 21:01:59;;;;;;;49.40;35.00;;;23.00;54.10;;;;;;222883;1254;22591;-45
2023/12/06 21:07:04;;;;;;;50.10;34.10;;;22.80;54.30;;;;;;222732;1265;24237;-45
2023/12/06 21:12:08;;;;;;;56.50;34.00;;;22.80;53.80;;;;;;222828;1264;25064;-44
2023/12/06 21:17:12;;;;;;;51.90;33.80;;;23.00;58.20;;;;;;223023;1262;22610;-52
2023/12/06 21:22:17;;;;;;;53.80;33.90;;;23.10;57.70;;;;;;222925;1248;24185;-49
2023/12/06 21:27:22;;;;;;;50.10;33.30;;;23.30;57.50;;;;;;222618;1254;24249;-52
2023/12/06 21:32:27;;;;;;;50.90;33.60;;;23.30;57.00;;;;;;222702;1256;24253;-53
2023/12/06 21:37:32;;;;;;;52.70;35.40;;;23.40;56.30;;;;;;222409;1254;22542;-51
2023/12/06 21:42:36;;;;;;;57.40;35.90;;;23.30;56.30;;;;;;222756;1263;22527;-49
2023/12/06 21:47:41;;;;;;;53.60;32.70;;;23.30;56.50;;;;;;222319;1248;24189;-49
2023/12/06 21:52:45;;;;;;;46.60;32.50;;;23.40;56.20;;;;;;222548;1251;26522;-51
2023/12/06 21:57:49;;;;;;;48.80;33.10;;;23.40;55.50;;;;;;222615;1253;22531;-50
2023/12/06 22:02:54;;;;;;;42.40;31.50;;;23.40;55.80;;;;;;222706;1257;22525;-51
2023/12/06 22:07:59;;;;;;;46.60;32.20;;;23.30;55.70;;;;;;222725;1266;22543;-50
2023/12/06 22:13:03;;;;;;;47.10;32.10;;;23.20;55.50;;;;;;222906;1254;25236;-50
2023/12/06 22:18:09;;;;;;;45.60;31.60;;;23.20;55.60;;;;;;222731;1264;24359;-52
2023/12/06 22:23:14;;;;;;;45.00;30.30;;;23.10;55.50;;;;;;222632;1266;22517;-49
2023/12/06 22:28:19;;;;;;;43.00;31.30;;;23.00;56.10;;;;;;222647;1264;22552;-54
2023/12/06 22:33:24;;;;;;;46.60;31.00;;;23.00;57.10;;;;;;222651;1263;22556;-49
2023/12/06 22:38:29;;;;;;;41.40;29.50;;;23.00;57.20;;;;;;222876;1255;25350;-53
2023/12/06 22:43:33;;;;;;;42.80;29.70;;;22.90;57.30;;;;;;222893;1263;22525;-50
2023/12/06 22:48:37;;;;;;;41.70;29.90;;;22.80;57.20;;;;;;222908;1262;24263;-51
2023/12/06 22:53:42;;;;;;;39.20;30.20;;;22.90;56.60;;;;;;222814;1262;22531;-52
2023/12/06 22:58:46;;;;;;;46.60;30.30;;;23.00;55.60;;;;;;222687;1263;24265;-53
2023/12/06 23:03:51;;;;;;;43.10;30.30;;;23.00;55.80;;;;;;222320;1263;23765;-52
2023/12/06 23:08:55;;;;;;;36.80;29.70;;;22.90;55.60;;;;;;223057;1254;22696;-53
2023/12/06 23:13:59;;;;;;;40.60;28.80;;;23.00;55.50;;;;;;222797;1263;24181;-49
2023/12/06 23:19:04;;;;;;;37.50;28.10;;;23.00;55.30;;;;;;222738;1253;22527;-51
2023/12/06 23:24:09;;;;;;;39.30;28.00;;;23.00;55.30;;;;;;222445;1266;26666;-48
2023/12/06 23:29:13;;;;;;;38.50;28.60;;;23.10;55.20;;;;;;222373;1264;22811;-53
2023/12/06 23:34:29;;;;;;;37.80;27.10;;;23.00;54.90;;;;;;222564;1262;24080;-49
2023/12/06 23:39:33;;;;;;;39.90;27.40;;;22.90;55.00;;;;;;223026;1254;22525;-50
2023/12/06 23:44:38;;;;;;;35.10;27.40;;;22.80;54.70;;;;;;222583;1266;24231;-51
2023/12/06 23:49:42;;;;;;;38.90;26.60;;;22.80;54.90;;;;;;222488;1255;22519;-49
2023/12/06 23:54:47;;;;;;;35.30;27.60;;;22.70;54.80;;;;;;222690;1256;22517;-48
2023/12/06 23:59:51;;;;;;;35.80;26.80;;;22.70;54.80;;;;;;222595;1269;25274;-47
